sensor_id;sensor_type;location;lat;lon;timestamp;pressure;altitude;pressure_sealevel;temperature;humidity
829;BME280;396;52.558;13.188;2023-06-26T00:00:03;101107.34;;;19.04;100.00
829;BME280;396;52.558;13.188;2023-06-26T00:02:30;101106.78;;;18.99;100.00
829;BME280;396;52.558;13.188;2023-06-26T00:04:58;101097.84;;;19.02;100.00
829;BME280;396;52.558;13.188;2023-06-26T00:07:29;101094.19;;;18.98;100.00
829;BME280;396;52.558;13.188;2023-06-26T00:09:56;101093.75;;;18.96;100.00
829;BME280;396;52.558;13.188;2023-06-26T00:12:24;101101.19;;;18.95;100.00
829;BME280;396;52.558;13.188;2023-06-26T00:14:50;101092.59;;;18.97;100.00
829;BME280;396;52.558;13.188;2023-06-26T00:17:17;101092.84;;;18.92;100.00
829;BME280;396;52.558;13.188;2023-06-26T00:19:44;101097.19;;;18.93;100.00
829;BME280;396;52.558;13.188;2023-06-26T00:22:11;101095.59;;;18.92;100.00
829;BME280;396;52.558;13.188;2023-06-26T00:24:40;101090.09;;;18.92;100.00
829;BME280;396;52.558;13.188;2023-06-26T00:27:06;101087.34;;;18.92;100.00
829;BME280;396;52.558;13.188;2023-06-26T00:29:33;101091.25;;;18.90;100.00
829;BME280;396;52.558;13.188;2023-06-26T00:32:00;101090.78;;;18.88;100.00
829;BME280;396;52.558;13.188;2023-06-26T00:34:27;101088.16;;;18.92;100.00
829;BME280;396;52.558;13.188;2023-06-26T00:36:53;101086.88;;;18.89;100.00
829;BME280;396;52.558;13.188;2023-06-26T00:39:20;101080.72;;;18.80;100.00
829;BME280;396;52.558;13.188;2023-06-26T00:41:48;101080.47;;;18.85;100.00
829;BME280;396;52.558;13.188;2023-06-26T00:44:15;101084.38;;;18.84;100.00
829;BME280;396;52.558;13.188;2023-06-26T00:46:42;101079.13;;;18.92;100.00
829;BME280;396;52.558;13.188;2023-06-26T00:49:09;101072.59;;;18.84;100.00
829;BME280;396;52.558;13.188;2023-06-26T00:51:36;101071.13;;;18.86;100.00
829;BME280;396;52.558;13.188;2023-06-26T00:54:02;101076.59;;;18.86;100.00
829;BME280;396;52.558;13.188;2023-06-26T00:56:31;101071.56;;;18.88;100.00
829;BME280;396;52.558;13.188;2023-06-26T00:58:59;101076.69;;;18.90;100.00
829;BME280;396;52.558;13.188;2023-06-26T01:01:25;101067.66;;;18.89;100.00
829;BME280;396;52.558;13.188;2023-06-26T01:03:53;101069.72;;;18.93;100.00
829;BME280;396;52.558;13.188;2023-06-26T01:06:23;101074.53;;;18.96;100.00
829;BME280;396;52.558;13.188;2023-06-26T01:08:52;101063.31;;;18.88;100.00
829;BME280;396;52.558;13.188;2023-06-26T01:11:19;101067.56;;;18.86;100.00
829;BME280;396;52.558;13.188;2023-06-26T01:13:46;101059.34;;;18.86;100.00
829;BME280;396;52.558;13.188;2023-06-26T01:16:15;101064.00;;;18.85;100.00
829;BME280;396;52.558;13.188;2023-06-26T01:18:45;101049.84;;;18.83;100.00
829;BME280;396;52.558;13.188;2023-06-26T01:21:14;101061.97;;;18.82;100.00
829;BME280;396;52.558;13.188;2023-06-26T01:23:49;101056.00;;;18.80;100.00
829;BME280;396;52.558;13.188;2023-06-26T01:26:23;101063.00;;;18.78;100.00
829;BME280;396;52.558;13.188;2023-06-26T01:28:53;101052.34;;;18.76;100.00
829;BME280;396;52.558;13.188;2023-06-26T01:31:20;101049.16;;;18.74;100.00
829;BME280;396;52.558;13.188;2023-06-26T01:33:47;101051.22;;;18.77;100.00
829;BME280;396;52.558;13.188;2023-06-26T01:36:14;101047.47;;;18.70;100.00
829;BME280;396;52.558;13.188;2023-06-26T01:38:40;101036.91;;;18.72;100.00
829;BME280;396;52.558;13.188;2023-06-26T01:41:07;101049.59;;;18.76;100.00
829;BME280;396;52.558;13.188;2023-06-26T01:43:41;101040.25;;;18.77;100.00
829;BME280;396;52.558;13.188;2023-06-26T01:46:16;101043.44;;;18.79;100.00
829;BME280;396;52.558;13.188;2023-06-26T01:48:55;101036.47;;;18.70;100.00
829;BME280;396;52.558;13.188;2023-06-26T01:51:32;101032.78;;;18.65;100.00
829;BME280;396;52.558;13.188;2023-06-26T01:54:07;101038.28;;;18.65;100.00
829;BME280;396;52.558;13.188;2023-06-26T01:56:38;101033.16;;;18.64;100.00
829;BME280;396;52.558;13.188;2023-06-26T01:59:08;101032.00;;;18.65;100.00
829;BME280;396;52.558;13.188;2023-06-26T02:01:35;101028.78;;;18.63;100.00
829;BME280;396;52.558;13.188;2023-06-26T02:04:02;101024.91;;;18.64;100.00
829;BME280;396;52.558;13.188;2023-06-26T02:06:28;101025.72;;;18.64;100.00
829;BME280;396;52.558;13.188;2023-06-26T02:08:55;101029.56;;;18.63;100.00
829;BME280;396;52.558;13.188;2023-06-26T02:11:22;101027.88;;;18.59;100.00
829;BME280;396;52.558;13.188;2023-06-26T02:13:49;101030.97;;;18.57;100.00
829;BME280;396;52.558;13.188;2023-06-26T02:16:17;101027.09;;;18.46;100.00
829;BME280;396;52.558;13.188;2023-06-26T02:18:43;101023.31;;;18.51;100.00
829;BME280;396;52.558;13.188;2023-06-26T02:21:10;101020.59;;;18.51;100.00
829;BME280;396;52.558;13.188;2023-06-26T02:23:37;101019.56;;;18.43;100.00
829;BME280;396;52.558;13.188;2023-06-26T02:26:04;101015.31;;;18.46;100.00
829;BME280;396;52.558;13.188;2023-06-26T02:28:30;101015.53;;;18.40;100.00
829;BME280;396;52.558;13.188;2023-06-26T02:30:59;101022.06;;;18.36;100.00
829;BME280;396;52.558;13.188;2023-06-26T02:33:27;101022.53;;;18.38;100.00
829;BME280;396;52.558;13.188;2023-06-26T02:35:54;101021.72;;;18.37;100.00
829;BME280;396;52.558;13.188;2023-06-26T02:38:21;101020.34;;;18.44;100.00
829;BME280;396;52.558;13.188;2023-06-26T02:40:47;101015.78;;;18.35;100.00
829;BME280;396;52.558;13.188;2023-06-26T02:43:14;101016.00;;;18.30;100.00
829;BME280;396;52.558;13.188;2023-06-26T02:45:41;101019.91;;;18.29;100.00
829;BME280;396;52.558;13.188;2023-06-26T02:48:08;101012.81;;;18.28;100.00
829;BME280;396;52.558;13.188;2023-06-26T02:50:36;101008.44;;;18.27;100.00
829;BME280;396;52.558;13.188;2023-06-26T02:53:02;101011.91;;;18.24;100.00
829;BME280;396;52.558;13.188;2023-06-26T02:55:29;101005.03;;;18.30;100.00
829;BME280;396;52.558;13.188;2023-06-26T02:57:56;101008.94;;;18.29;100.00
829;BME280;396;52.558;13.188;2023-06-26T03:00:22;101000.22;;;18.27;100.00
829;BME280;396;52.558;13.188;2023-06-26T03:02:52;101004.13;;;18.26;100.00
829;BME280;396;52.558;13.188;2023-06-26T03:05:18;101001.03;;;18.28;100.00
829;BME280;396;52.558;13.188;2023-06-26T03:07:46;100995.53;;;18.28;100.00
829;BME280;396;52.558;13.188;2023-06-26T03:10:13;100990.66;;;18.33;100.00
829;BME280;396;52.558;13.188;2023-06-26T03:12:40;100996.44;;;18.32;100.00
829;BME280;396;52.558;13.188;2023-06-26T03:15:07;100993.47;;;18.37;100.00
829;BME280;396;52.558;13.188;2023-06-26T03:17:34;100990.41;;;18.38;100.00
829;BME280;396;52.558;13.188;2023-06-26T03:20:01;100994.19;;;18.46;100.00
829;BME280;396;52.558;13.188;2023-06-26T03:22:27;100988.91;;;18.41;100.00
829;BME280;396;52.558;13.188;2023-06-26T03:24:55;100995.06;;;18.50;100.00
829;BME280;396;52.558;13.188;2023-06-26T03:27:22;100986.03;;;18.50;100.00
829;BME280;396;52.558;13.188;2023-06-26T03:29:49;100983.88;;;18.55;100.00
829;BME280;396;52.558;13.188;2023-06-26T03:32:15;100986.72;;;18.59;100.00
829;BME280;396;52.558;13.188;2023-06-26T03:34:42;100981.00;;;18.64;100.00
829;BME280;396;52.558;13.188;2023-06-26T03:37:08;100976.31;;;18.64;100.00
829;BME280;396;52.558;13.188;2023-06-26T03:39:40;100978.28;;;18.64;100.00
829;BME280;396;52.558;13.188;2023-06-26T03:42:15;100966.13;;;18.65;100.00
829;BME280;396;52.558;13.188;2023-06-26T03:44:41;100974.81;;;18.67;100.00
829;BME280;396;52.558;13.188;2023-06-26T03:47:08;100973.66;;;18.68;100.00
829;BME280;396;52.558;13.188;2023-06-26T03:49:35;100975.31;;;18.69;100.00
829;BME280;396;52.558;13.188;2023-06-26T03:52:01;100972.06;;;18.67;100.00
829;BME280;396;52.558;13.188;2023-06-26T03:54:28;100968.16;;;18.68;100.00
829;BME280;396;52.558;13.188;2023-06-26T03:56:55;100985.69;;;18.76;100.00
829;BME280;396;52.558;13.188;2023-06-26T03:59:23;100983.41;;;18.78;100.00
829;BME280;396;52.558;13.188;2023-06-26T04:01:49;100982.25;;;18.79;100.00
829;BME280;396;52.558;13.188;2023-06-26T04:04:16;100977.81;;;18.74;100.00
829;BME280;396;52.558;13.188;2023-06-26T04:06:43;100979.94;;;18.81;100.00
829;BME280;396;52.558;13.188;2023-06-26T04:09:10;100981.31;;;18.87;100.00
829;BME280;396;52.558;13.188;2023-06-26T04:11:37;100977.53;;;18.92;100.00
829;BME280;396;52.558;13.188;2023-06-26T04:14:10;100970.09;;;18.92;100.00
829;BME280;396;52.558;13.188;2023-06-26T04:16:38;100976.75;;;18.91;100.00
829;BME280;396;52.558;13.188;2023-06-26T04:19:05;100973.19;;;18.90;100.00
829;BME280;396;52.558;13.188;2023-06-26T04:21:31;100970.47;;;18.90;100.00
829;BME280;396;52.558;13.188;2023-06-26T04:23:58;100964.34;;;18.97;100.00
829;BME280;396;52.558;13.188;2023-06-26T04:26:25;100965.38;;;19.05;100.00
829;BME280;396;52.558;13.188;2023-06-26T04:28:53;100964.44;;;19.13;100.00
829;BME280;396;52.558;13.188;2023-06-26T04:31:19;100958.31;;;19.20;100.00
829;BME280;396;52.558;13.188;2023-06-26T04:33:48;100961.28;;;19.27;100.00
829;BME280;396;52.558;13.188;2023-06-26T04:36:16;100960.22;;;19.31;100.00
829;BME280;396;52.558;13.188;2023-06-26T04:38:43;100963.59;;;19.40;100.00
829;BME280;396;52.558;13.188;2023-06-26T04:41:09;100966.88;;;19.46;100.00
829;BME280;396;52.558;13.188;2023-06-26T04:43:36;100967.09;;;19.53;100.00
829;BME280;396;52.558;13.188;2023-06-26T04:46:03;100964.22;;;19.62;100.00
829;BME280;396;52.558;13.188;2023-06-26T04:48:29;100963.78;;;19.76;100.00
829;BME280;396;52.558;13.188;2023-06-26T04:50:58;100957.03;;;19.89;100.00
829;BME280;396;52.558;13.188;2023-06-26T04:53:25;100955.78;;;20.02;100.00
829;BME280;396;52.558;13.188;2023-06-26T04:55:52;100960.38;;;20.14;100.00
829;BME280;396;52.558;13.188;2023-06-26T04:58:19;100953.19;;;20.25;100.00
829;BME280;396;52.558;13.188;2023-06-26T05:00:46;100960.59;;;20.40;100.00
829;BME280;396;52.558;13.188;2023-06-26T05:03:14;100962.47;;;20.52;100.00
829;BME280;396;52.558;13.188;2023-06-26T05:05:42;100958.81;;;20.64;100.00
829;BME280;396;52.558;13.188;2023-06-26T05:08:17;100959.81;;;20.75;100.00
829;BME280;396;52.558;13.188;2023-06-26T05:10:44;100957.59;;;20.81;100.00
829;BME280;396;52.558;13.188;2023-06-26T05:13:12;100959.28;;;20.85;100.00
829;BME280;396;52.558;13.188;2023-06-26T05:15:40;100958.81;;;20.83;100.00
829;BME280;396;52.558;13.188;2023-06-26T05:18:07;100958.81;;;20.83;100.00
829;BME280;396;52.558;13.188;2023-06-26T05:20:34;100954.47;;;20.82;100.00
829;BME280;396;52.558;13.188;2023-06-26T05:23:01;100958.81;;;20.83;100.00
829;BME280;396;52.558;13.188;2023-06-26T05:25:30;100954.91;;;20.84;100.00
829;BME280;396;52.558;13.188;2023-06-26T05:27:57;100956.50;;;20.85;100.00
829;BME280;396;52.558;13.188;2023-06-26T05:30:25;100954.19;;;20.87;100.00
829;BME280;396;52.558;13.188;2023-06-26T05:32:52;100950.72;;;20.90;100.00
829;BME280;396;52.558;13.188;2023-06-26T05:35:20;100952.47;;;20.99;100.00
829;BME280;396;52.558;13.188;2023-06-26T05:37:48;100946.72;;;21.07;100.00
829;BME280;396;52.558;13.188;2023-06-26T05:40:16;100941.34;;;21.14;100.00
829;BME280;396;52.558;13.188;2023-06-26T05:42:46;100942.28;;;21.22;99.15
829;BME280;396;52.558;13.188;2023-06-26T05:45:13;100942.50;;;21.33;92.23
829;BME280;396;52.558;13.188;2023-06-26T05:47:39;100945.97;;;21.49;90.39
829;BME280;396;52.558;13.188;2023-06-26T05:50:07;100935.56;;;21.62;90.76
829;BME280;396;52.558;13.188;2023-06-26T05:52:35;100928.56;;;21.68;90.27
829;BME280;396;52.558;13.188;2023-06-26T05:55:04;100927.13;;;21.78;88.69
829;BME280;396;52.558;13.188;2023-06-26T05:57:32;100923.84;;;21.91;84.46
829;BME280;396;52.558;13.188;2023-06-26T06:00:01;100922.88;;;22.07;83.53
829;BME280;396;52.558;13.188;2023-06-26T06:02:28;100925.81;;;22.17;83.59
829;BME280;396;52.558;13.188;2023-06-26T06:04:55;100919.31;;;22.29;84.42
829;BME280;396;52.558;13.188;2023-06-26T06:07:21;100923.31;;;22.35;86.18
829;BME280;396;52.558;13.188;2023-06-26T06:09:48;100918.22;;;22.37;87.15
829;BME280;396;52.558;13.188;2023-06-26T06:12:14;100916.69;;;22.40;88.38
829;BME280;396;52.558;13.188;2023-06-26T06:14:41;100916.31;;;22.41;90.15
829;BME280;396;52.558;13.188;2023-06-26T06:17:09;100921.47;;;22.43;90.72
829;BME280;396;52.558;13.188;2023-06-26T06:19:36;100915.53;;;22.41;89.26
829;BME280;396;52.558;13.188;2023-06-26T06:22:03;100920.34;;;22.48;87.69
829;BME280;396;52.558;13.188;2023-06-26T06:24:29;100920.00;;;22.53;86.54
829;BME280;396;52.558;13.188;2023-06-26T06:26:56;100915.00;;;22.62;86.12
829;BME280;396;52.558;13.188;2023-06-26T06:29:23;100906.47;;;22.74;84.36
829;BME280;396;52.558;13.188;2023-06-26T06:31:49;100914.91;;;22.85;82.01
829;BME280;396;52.558;13.188;2023-06-26T06:34:18;100909.97;;;22.98;80.58
829;BME280;396;52.558;13.188;2023-06-26T06:36:44;100910.47;;;23.10;80.75
829;BME280;396;52.558;13.188;2023-06-26T06:39:11;100908.59;;;23.18;81.24
829;BME280;396;52.558;13.188;2023-06-26T06:41:38;100909.41;;;23.22;79.32
829;BME280;396;52.558;13.188;2023-06-26T06:44:04;100915.88;;;23.33;77.91
829;BME280;396;52.558;13.188;2023-06-26T06:46:32;100910.38;;;23.40;79.17
829;BME280;396;52.558;13.188;2023-06-26T06:48:59;100908.50;;;23.48;78.92
829;BME280;396;52.558;13.188;2023-06-26T06:51:28;100903.03;;;23.59;73.76
829;BME280;396;52.558;13.188;2023-06-26T06:53:55;100904.78;;;23.74;74.84
829;BME280;396;52.558;13.188;2023-06-26T06:56:22;100906.91;;;23.91;74.08
829;BME280;396;52.558;13.188;2023-06-26T06:58:48;100905.41;;;24.05;73.20
829;BME280;396;52.558;13.188;2023-06-26T07:01:15;100908.63;;;24.10;72.66
829;BME280;396;52.558;13.188;2023-06-26T07:03:42;100909.50;;;24.22;71.05
829;BME280;396;52.558;13.188;2023-06-26T07:06:08;100896.84;;;24.28;72.99
829;BME280;396;52.558;13.188;2023-06-26T07:08:36;100900.03;;;24.33;73.38
829;BME280;396;52.558;13.188;2023-06-26T07:11:04;100904.06;;;24.43;71.14
829;BME280;396;52.558;13.188;2023-06-26T07:13:30;100899.38;;;24.51;71.32
829;BME280;396;52.558;13.188;2023-06-26T07:15:57;100903.72;;;24.52;73.14
829;BME280;396;52.558;13.188;2023-06-26T07:18:24;100893.06;;;24.54;73.95
829;BME280;396;52.558;13.188;2023-06-26T07:20:50;100898.63;;;24.61;72.18
829;BME280;396;52.558;13.188;2023-06-26T07:23:17;100901.03;;;24.66;70.33
829;BME280;396;52.558;13.188;2023-06-26T07:25:45;100901.81;;;24.70;70.85
829;BME280;396;52.558;13.188;2023-06-26T07:28:12;100897.13;;;24.81;69.17
829;BME280;396;52.558;13.188;2023-06-26T07:30:39;100903.06;;;24.87;70.50
829;BME280;396;52.558;13.188;2023-06-26T07:33:05;100891.19;;;24.86;72.82
829;BME280;396;52.558;13.188;2023-06-26T07:35:33;100894.00;;;24.94;71.24
829;BME280;396;52.558;13.188;2023-06-26T07:38:00;100893.19;;;24.97;70.53
829;BME280;396;52.558;13.188;2023-06-26T07:40:26;100883.72;;;25.05;68.51
829;BME280;396;52.558;13.188;2023-06-26T07:42:54;100879.03;;;25.20;68.07
829;BME280;396;52.558;13.188;2023-06-26T07:45:23;100882.63;;;25.31;69.60
829;BME280;396;52.558;13.188;2023-06-26T07:47:50;100881.03;;;25.30;69.91
829;BME280;396;52.558;13.188;2023-06-26T07:50:17;100883.03;;;25.33;65.36
829;BME280;396;52.558;13.188;2023-06-26T07:52:46;100879.88;;;25.41;65.81
829;BME280;396;52.558;13.188;2023-06-26T07:55:13;100874.69;;;25.54;66.67
829;BME280;396;52.558;13.188;2023-06-26T07:57:40;100880.66;;;25.63;64.22
829;BME280;396;52.558;13.188;2023-06-26T08:00:09;100883.00;;;25.76;63.21
829;BME280;396;52.558;13.188;2023-06-26T08:02:37;100871.16;;;25.82;63.38
829;BME280;396;52.558;13.188;2023-06-26T08:05:04;100869.97;;;25.83;63.63
829;BME280;396;52.558;13.188;2023-06-26T08:07:31;100874.31;;;25.91;60.26
829;BME280;396;52.558;13.188;2023-06-26T08:09:57;100865.16;;;26.02;59.30
829;BME280;396;52.558;13.188;2023-06-26T08:12:27;100867.13;;;26.15;59.69
829;BME280;396;52.558;13.188;2023-06-26T08:14:53;100868.28;;;26.25;58.90
829;BME280;396;52.558;13.188;2023-06-26T08:17:21;100860.72;;;26.29;59.48
829;BME280;396;52.558;13.188;2023-06-26T08:19:48;100867.47;;;26.35;56.46
829;BME280;396;52.558;13.188;2023-06-26T08:22:15;100861.88;;;26.46;58.11
829;BME280;396;52.558;13.188;2023-06-26T08:24:41;100865.44;;;26.54;57.09
829;BME280;396;52.558;13.188;2023-06-26T08:27:08;100855.47;;;26.63;56.23
829;BME280;396;52.558;13.188;2023-06-26T08:29:35;100863.00;;;26.66;57.97
829;BME280;396;52.558;13.188;2023-06-26T08:32:02;100865.38;;;26.68;55.96
829;BME280;396;52.558;13.188;2023-06-26T08:34:30;100860.13;;;26.81;55.51
829;BME280;396;52.558;13.188;2023-06-26T08:36:56;100852.53;;;26.92;57.54
829;BME280;396;52.558;13.188;2023-06-26T08:39:23;100845.75;;;26.97;56.35
829;BME280;396;52.558;13.188;2023-06-26T08:41:50;100850.50;;;27.00;56.41
829;BME280;396;52.558;13.188;2023-06-26T08:44:16;100852.44;;;27.06;55.82
829;BME280;396;52.558;13.188;2023-06-26T08:46:43;100850.47;;;27.10;53.78
829;BME280;396;52.558;13.188;2023-06-26T08:49:20;100841.25;;;27.17;55.15
829;BME280;396;52.558;13.188;2023-06-26T08:51:52;100842.44;;;27.23;55.49
829;BME280;396;52.558;13.188;2023-06-26T08:54:38;100838.47;;;27.21;59.76
829;BME280;396;52.558;13.188;2023-06-26T08:57:07;100836.88;;;27.20;59.24
829;BME280;396;52.558;13.188;2023-06-26T08:59:34;100838.81;;;27.26;55.93
829;BME280;396;52.558;13.188;2023-06-26T09:02:00;100841.53;;;27.33;56.30
829;BME280;396;52.558;13.188;2023-06-26T09:04:30;100838.00;;;27.29;57.98
829;BME280;396;52.558;13.188;2023-06-26T09:06:58;100835.63;;;27.28;52.98
829;BME280;396;52.558;13.188;2023-06-26T09:09:24;100837.13;;;27.39;55.00
829;BME280;396;52.558;13.188;2023-06-26T09:11:51;100830.72;;;27.46;52.52
829;BME280;396;52.558;13.188;2023-06-26T09:14:18;100825.47;;;27.55;52.06
829;BME280;396;52.558;13.188;2023-06-26T09:16:45;100825.03;;;27.57;51.36
829;BME280;396;52.558;13.188;2023-06-26T09:19:12;100819.81;;;27.62;51.70
829;BME280;396;52.558;13.188;2023-06-26T09:21:40;100823.75;;;27.69;53.35
829;BME280;396;52.558;13.188;2023-06-26T09:24:09;100815.38;;;27.72;53.03
829;BME280;396;52.558;13.188;2023-06-26T09:26:37;100811.41;;;27.73;51.58
829;BME280;396;52.558;13.188;2023-06-26T09:29:04;100817.31;;;27.75;49.85
829;BME280;396;52.558;13.188;2023-06-26T09:31:32;100810.56;;;27.76;53.17
829;BME280;396;52.558;13.188;2023-06-26T09:34:00;100810.88;;;27.85;51.70
829;BME280;396;52.558;13.188;2023-06-26T09:36:28;100809.53;;;27.97;49.37
829;BME280;396;52.558;13.188;2023-06-26T09:38:59;100806.97;;;28.13;50.61
829;BME280;396;52.558;13.188;2023-06-26T09:41:27;100806.16;;;28.16;52.19
829;BME280;396;52.558;13.188;2023-06-26T09:43:54;100802.84;;;28.25;49.44
829;BME280;396;52.558;13.188;2023-06-26T09:46:24;100802.75;;;28.36;48.55
829;BME280;396;52.558;13.188;2023-06-26T09:48:59;100793.94;;;28.37;50.49
829;BME280;396;52.558;13.188;2023-06-26T09:51:29;100799.41;;;28.48;49.74
829;BME280;396;52.558;13.188;2023-06-26T09:53:55;100790.13;;;28.55;49.72
829;BME280;396;52.558;13.188;2023-06-26T09:56:22;100793.31;;;28.57;48.49
829;BME280;396;52.558;13.188;2023-06-26T09:58:50;100784.69;;;28.48;49.89
829;BME280;396;52.558;13.188;2023-06-26T10:01:18;100792.09;;;28.58;51.08
829;BME280;396;52.558;13.188;2023-06-26T10:03:45;100788.09;;;28.59;49.84
829;BME280;396;52.558;13.188;2023-06-26T10:06:12;100777.69;;;28.63;51.02
829;BME280;396;52.558;13.188;2023-06-26T10:08:39;100771.22;;;28.70;52.68
829;BME280;396;52.558;13.188;2023-06-26T10:11:07;100778.81;;;28.69;52.67
829;BME280;396;52.558;13.188;2023-06-26T10:13:37;100777.84;;;28.79;47.41
829;BME280;396;52.558;13.188;2023-06-26T10:16:07;100768.13;;;28.91;49.45
829;BME280;396;52.558;13.188;2023-06-26T10:18:35;100760.94;;;28.90;50.34
829;BME280;396;52.558;13.188;2023-06-26T10:21:06;100768.44;;;28.97;49.82
829;BME280;396;52.558;13.188;2023-06-26T10:23:33;100763.13;;;29.06;47.28
829;BME280;396;52.558;13.188;2023-06-26T10:26:03;100760.13;;;29.16;48.55
829;BME280;396;52.558;13.188;2023-06-26T10:28:31;100763.59;;;29.24;48.75
829;BME280;396;52.558;13.188;2023-06-26T10:31:01;100743.06;;;29.34;48.34
829;BME280;396;52.558;13.188;2023-06-26T10:33:30;100747.81;;;29.37;49.25
829;BME280;396;52.558;13.188;2023-06-26T10:36:13;100747.53;;;29.52;47.37
829;BME280;396;52.558;13.188;2023-06-26T10:38:50;100743.09;;;29.58;49.01
829;BME280;396;52.558;13.188;2023-06-26T10:41:20;100736.13;;;29.66;49.11
829;BME280;396;52.558;13.188;2023-06-26T10:43:51;100744.03;;;29.71;47.85
829;BME280;396;52.558;13.188;2023-06-26T10:46:33;100731.63;;;29.72;48.18
829;BME280;396;52.558;13.188;2023-06-26T10:49:02;100734.97;;;29.83;47.01
829;BME280;396;52.558;13.188;2023-06-26T10:51:28;100731.28;;;29.90;46.58
829;BME280;396;52.558;13.188;2023-06-26T10:53:55;100719.59;;;29.95;49.63
829;BME280;396;52.558;13.188;2023-06-26T10:56:41;100721.59;;;30.14;50.04
829;BME280;396;52.558;13.188;2023-06-26T10:59:18;100726.19;;;30.25;46.85
829;BME280;396;52.558;13.188;2023-06-26T11:01:45;100719.47;;;30.38;48.81
829;BME280;396;52.558;13.188;2023-06-26T11:04:14;100717.38;;;30.59;49.02
829;BME280;396;52.558;13.188;2023-06-26T11:06:45;100708.06;;;30.65;48.99
829;BME280;396;52.558;13.188;2023-06-26T11:09:15;100718.78;;;30.67;45.88
829;BME280;396;52.558;13.188;2023-06-26T11:11:58;100713.41;;;30.93;46.97
829;BME280;396;52.558;13.188;2023-06-26T11:14:27;100711.84;;;31.08;44.66
829;BME280;396;52.558;13.188;2023-06-26T11:16:55;100713.56;;;31.18;45.75
829;BME280;396;52.558;13.188;2023-06-26T11:19:25;100708.41;;;31.62;45.16
829;BME280;396;52.558;13.188;2023-06-26T11:21:58;100695.16;;;31.92;44.14
829;BME280;396;52.558;13.188;2023-06-26T11:24:25;100698.44;;;32.15;44.53
829;BME280;396;52.558;13.188;2023-06-26T11:26:52;100699.38;;;32.51;41.42
829;BME280;396;52.558;13.188;2023-06-26T11:29:19;100707.31;;;32.65;40.38
829;BME280;396;52.558;13.188;2023-06-26T11:31:45;100700.63;;;32.50;40.16
829;BME280;396;52.558;13.188;2023-06-26T11:34:15;100686.06;;;32.89;42.00
829;BME280;396;52.558;13.188;2023-06-26T11:36:43;100696.75;;;33.29;39.16
829;BME280;396;52.558;13.188;2023-06-26T11:39:12;100678.47;;;33.47;41.25
829;BME280;396;52.558;13.188;2023-06-26T11:41:39;100680.25;;;33.75;40.74
829;BME280;396;52.558;13.188;2023-06-26T11:44:07;100672.47;;;34.01;38.53
829;BME280;396;52.558;13.188;2023-06-26T11:46:34;100671.81;;;34.37;38.99
829;BME280;396;52.558;13.188;2023-06-26T11:49:02;100671.94;;;34.34;37.26
829;BME280;396;52.558;13.188;2023-06-26T11:51:29;100669.69;;;34.51;38.39
829;BME280;396;52.558;13.188;2023-06-26T11:54:00;100658.63;;;34.75;36.90
829;BME280;396;52.558;13.188;2023-06-26T11:56:26;100646.81;;;34.98;39.59
829;BME280;396;52.558;13.188;2023-06-26T11:58:57;100650.06;;;35.15;36.69
829;BME280;396;52.558;13.188;2023-06-26T12:01:27;100649.59;;;35.35;38.12
829;BME280;396;52.558;13.188;2023-06-26T12:04:00;100642.75;;;35.08;36.29
829;BME280;396;52.558;13.188;2023-06-26T12:06:28;100640.03;;;35.42;37.70
829;BME280;396;52.558;13.188;2023-06-26T12:08:57;100642.69;;;35.45;35.94
829;BME280;396;52.558;13.188;2023-06-26T12:11:25;100634.88;;;35.49;36.23
829;BME280;396;52.558;13.188;2023-06-26T12:13:52;100640.84;;;35.42;35.44
829;BME280;396;52.558;13.188;2023-06-26T12:16:19;100619.72;;;35.47;34.58
829;BME280;396;52.558;13.188;2023-06-26T12:18:46;100615.16;;;35.40;34.55
829;BME280;396;52.558;13.188;2023-06-26T12:21:44;100612.09;;;35.80;36.23
829;BME280;396;52.558;13.188;2023-06-26T12:24:15;100608.75;;;36.00;37.26
829;BME280;396;52.558;13.188;2023-06-26T12:26:43;100606.06;;;35.45;36.46
829;BME280;396;52.558;13.188;2023-06-26T12:29:11;100605.19;;;35.21;36.26
829;BME280;396;52.558;13.188;2023-06-26T12:31:40;100595.22;;;35.71;37.35
829;BME280;396;52.558;13.188;2023-06-26T12:34:09;100601.16;;;35.73;34.07
829;BME280;396;52.558;13.188;2023-06-26T12:36:40;100611.06;;;35.41;34.78
829;BME280;396;52.558;13.188;2023-06-26T12:39:09;100595.91;;;35.38;34.29
829;BME280;396;52.558;13.188;2023-06-26T12:41:45;100584.63;;;35.57;35.68
829;BME280;396;52.558;13.188;2023-06-26T12:44:19;100577.19;;;35.78;36.10
829;BME280;396;52.558;13.188;2023-06-26T12:46:47;100575.75;;;36.16;37.37
829;BME280;396;52.558;13.188;2023-06-26T12:49:14;100583.63;;;36.45;36.32
829;BME280;396;52.558;13.188;2023-06-26T12:51:41;100578.53;;;35.92;34.09
829;BME280;396;52.558;13.188;2023-06-26T12:54:09;100575.28;;;34.77;37.15
829;BME280;396;52.558;13.188;2023-06-26T12:56:35;100558.66;;;33.84;38.66
829;BME280;396;52.558;13.188;2023-06-26T12:59:04;100566.53;;;33.14;39.70
829;BME280;396;52.558;13.188;2023-06-26T13:01:30;100555.19;;;32.48;39.78
829;BME280;396;52.558;13.188;2023-06-26T13:03:58;100548.06;;;31.96;40.10
829;BME280;396;52.558;13.188;2023-06-26T13:06:24;100545.13;;;31.74;41.51
829;BME280;396;52.558;13.188;2023-06-26T13:08:51;100547.59;;;31.47;42.22
829;BME280;396;52.558;13.188;2023-06-26T13:11:17;100547.19;;;31.19;45.17
829;BME280;396;52.558;13.188;2023-06-26T13:13:44;100533.66;;;30.88;43.73
829;BME280;396;52.558;13.188;2023-06-26T13:16:12;100532.50;;;30.57;43.49
829;BME280;396;52.558;13.188;2023-06-26T13:18:39;100523.00;;;30.38;44.13
829;BME280;396;52.558;13.188;2023-06-26T13:21:05;100510.94;;;30.41;44.31